<?xml version="1.0" encoding="UTF-8" standalone="no" ?>
<gpx xmlns="http://www.topografix.com/GPX/1/1" xmlns:xsi="http://www.w3.org/2001/XMLSchema-instance" xsi:schemaLocation="http://www.topografix.com/GPX/1/1 http://www.topografix.com/GPX/1/1/gpx.xsd" version="1.1" creator="VisuGPX - https://www.visugpx.com">
  <metadata>
    <name>Damvix_BoucleMarais_12.4-18km</name>
    <desc><![CDATA[gnerando Idor:7873061_8031657]]></desc>
  </metadata>
  <trk>
    <name><![CDATA[Damvix_18.2km-8031657]]></name>
    <extensions>
      <line xmlns="http://www.topografix.com/GPX/gpx_style/0/2">
        <color>0000FF</color>
        <width>4</width>
      </line>
    </extensions>
    <trkseg>
      <trkpt lat="46.31377" lon="-0.73376">
        <ele>5</ele>
        <time>2023-11-01T15:38:24Z</time>
      </trkpt>
      <trkpt lat="46.31314" lon="-0.73346">
        <ele>5</ele>
        <time>2023-11-01T15:39:53Z</time>
      </trkpt>
      <trkpt lat="46.31211" lon="-0.73527">
        <ele>4</ele>
        <time>2023-11-01T15:43:29Z</time>
      </trkpt>
      <trkpt lat="46.31107" lon="-0.73763">
        <ele>4</ele>
        <time>2023-11-01T15:47:47Z</time>
      </trkpt>
      <trkpt lat="46.30873" lon="-0.73964">
        <ele>3</ele>
        <time>2023-11-01T15:53:50Z</time>
      </trkpt>
      <trkpt lat="46.30802" lon="-0.73973">
        <ele>3</ele>
        <time>2023-11-01T15:55:25Z</time>
      </trkpt>
      <trkpt lat="46.30733" lon="-0.74067">
        <ele>3</ele>
        <time>2023-11-01T15:57:31Z</time>
      </trkpt>
      <trkpt lat="46.30976" lon="-0.74866">
        <ele>3</ele>
        <time>2023-11-01T16:10:56Z</time>
      </trkpt>
      <trkpt lat="46.30926" lon="-0.75007">
        <ele>3</ele>
        <time>2023-11-01T16:13:22Z</time>
      </trkpt>
      <trkpt lat="46.30885" lon="-0.74964">
        <ele>3</ele>
        <time>2023-11-01T16:14:30Z</time>
      </trkpt>
      <trkpt lat="46.3071" lon="-0.75162">
        <ele>4</ele>
        <time>2023-11-01T16:19:26Z</time>
      </trkpt>
      <trkpt lat="46.30618" lon="-0.75368">
        <ele>4</ele>
        <time>2023-11-01T16:23:12Z</time>
      </trkpt>
      <trkpt lat="46.30674" lon="-0.75428">
        <ele>2</ele>
        <time>2023-11-01T16:24:45Z</time>
      </trkpt>
      <trkpt lat="46.30449" lon="-0.75792">
        <ele>4</ele>
        <time>2023-11-01T16:32:16Z</time>
      </trkpt>
      <trkpt lat="46.31409" lon="-0.77179">
        <ele>4</ele>
        <time>2023-11-01T17:02:25Z</time>
      </trkpt>
      <trkpt lat="46.31746" lon="-0.77676">
        <ele>3</ele>
        <time>2023-11-01T17:13:07Z</time>
      </trkpt>
      <trkpt lat="46.31793" lon="-0.77743">
        <ele>3</ele>
        <time>2023-11-01T17:14:35Z</time>
      </trkpt>
      <trkpt lat="46.31758" lon="-0.77792">
        <ele>3</ele>
        <time>2023-11-01T17:15:40Z</time>
      </trkpt>
      <trkpt lat="46.31815" lon="-0.77968">
        <ele>2</ele>
        <time>2023-11-01T17:18:40Z</time>
      </trkpt>
      <trkpt lat="46.31872" lon="-0.78247">
        <ele>4</ele>
        <time>2023-11-01T17:23:08Z</time>
      </trkpt>
      <trkpt lat="46.31889" lon="-0.78543">
        <ele>2</ele>
        <time>2023-11-01T17:27:41Z</time>
      </trkpt>
      <trkpt lat="46.32067" lon="-0.78805">
        <ele>3</ele>
        <time>2023-11-01T17:33:20Z</time>
      </trkpt>
      <trkpt lat="46.3215" lon="-0.78694">
        <ele>5</ele>
        <time>2023-11-01T17:35:51Z</time>
      </trkpt>
      <trkpt lat="46.31946" lon="-0.78518">
        <ele>3</ele>
        <time>2023-11-01T17:41:08Z</time>
      </trkpt>
      <trkpt lat="46.31898" lon="-0.78239">
        <ele>4</ele>
        <time>2023-11-01T17:45:33Z</time>
      </trkpt>
      <trkpt lat="46.31848" lon="-0.77913">
        <ele>2</ele>
        <time>2023-11-01T17:50:41Z</time>
      </trkpt>
      <trkpt lat="46.31884" lon="-0.77642">
        <ele>3</ele>
        <time>2023-11-01T17:54:55Z</time>
      </trkpt>
      <trkpt lat="46.31912" lon="-0.77576">
        <ele>3</ele>
        <time>2023-11-01T17:56:06Z</time>
      </trkpt>
      <trkpt lat="46.31977" lon="-0.77505">
        <ele>5</ele>
        <time>2023-11-01T17:57:55Z</time>
      </trkpt>
      <trkpt lat="46.32026" lon="-0.77438">
        <ele>4</ele>
        <time>2023-11-01T17:59:25Z</time>
      </trkpt>
      <trkpt lat="46.32295" lon="-0.7625">
        <ele>3</ele>
        <time>2023-11-01T18:18:37Z</time>
      </trkpt>
      <trkpt lat="46.32454" lon="-0.76029">
        <ele>3</ele>
        <time>2023-11-01T18:23:31Z</time>
      </trkpt>
      <trkpt lat="46.32466" lon="-0.75973">
        <ele>3</ele>
        <time>2023-11-01T18:24:25Z</time>
      </trkpt>
      <trkpt lat="46.32527" lon="-0.75857">
        <ele>3</ele>
        <time>2023-11-01T18:26:40Z</time>
      </trkpt>
      <trkpt lat="46.32798" lon="-0.7567">
        <ele>4</ele>
        <time>2023-11-01T18:33:20Z</time>
      </trkpt>
      <trkpt lat="46.32896" lon="-0.75649">
        <ele>6</ele>
        <time>2023-11-01T18:35:32Z</time>
      </trkpt>
      <trkpt lat="46.33485" lon="-0.75149">
        <ele>3</ele>
        <time>2023-11-01T18:50:43Z</time>
      </trkpt>
      <trkpt lat="46.33638" lon="-0.75014">
        <ele>4</ele>
        <time>2023-11-01T18:54:43Z</time>
      </trkpt>
      <trkpt lat="46.33802" lon="-0.74835">
        <ele>4</ele>
        <time>2023-11-01T18:59:17Z</time>
      </trkpt>
      <trkpt lat="46.33953" lon="-0.74314">
        <ele>3</ele>
        <time>2023-11-01T19:07:57Z</time>
      </trkpt>
      <trkpt lat="46.34448" lon="-0.7222">
        <ele>5</ele>
        <time>2023-11-01T19:41:56Z</time>
      </trkpt>
      <trkpt lat="46.33993" lon="-0.72231">
        <ele>5</ele>
        <time>2023-11-01T19:52:04Z</time>
      </trkpt>
      <trkpt lat="46.33744" lon="-0.72123">
        <ele>4</ele>
        <time>2023-11-01T19:57:50Z</time>
      </trkpt>
      <trkpt lat="46.33478" lon="-0.7199">
        <ele>5</ele>
        <time>2023-11-01T20:04:06Z</time>
      </trkpt>
      <trkpt lat="46.33235" lon="-0.71471">
        <ele>6</ele>
        <time>2023-11-01T20:13:44Z</time>
      </trkpt>
      <trkpt lat="46.33167" lon="-0.71376">
        <ele>6</ele>
        <time>2023-11-01T20:15:50Z</time>
      </trkpt>
      <trkpt lat="46.32764" lon="-0.71497">
        <ele>5</ele>
        <time>2023-11-01T20:24:59Z</time>
      </trkpt>
      <trkpt lat="46.33324" lon="-0.73278">
        <ele>5</ele>
        <time>2023-11-01T20:55:02Z</time>
      </trkpt>
      <trkpt lat="46.3315" lon="-0.73458">
        <ele>3</ele>
        <time>2023-11-01T20:59:48Z</time>
      </trkpt>
      <trkpt lat="46.32827" lon="-0.73449">
        <ele>5</ele>
        <time>2023-11-01T21:06:59Z</time>
      </trkpt>
      <trkpt lat="46.32696" lon="-0.73297">
        <ele>5</ele>
        <time>2023-11-01T21:10:43Z</time>
      </trkpt>
      <trkpt lat="46.32565" lon="-0.73331">
        <ele>6</ele>
        <time>2023-11-01T21:13:40Z</time>
      </trkpt>
      <trkpt lat="46.32245" lon="-0.73346">
        <ele>7</ele>
        <time>2023-11-01T21:20:48Z</time>
      </trkpt>
      <trkpt lat="46.32079" lon="-0.73233">
        <ele>8</ele>
        <time>2023-11-01T21:24:52Z</time>
      </trkpt>
      <trkpt lat="46.32005" lon="-0.73248">
        <ele>7</ele>
        <time>2023-11-01T21:26:32Z</time>
      </trkpt>
      <trkpt lat="46.31897" lon="-0.73301">
        <ele>6</ele>
        <time>2023-11-01T21:29:04Z</time>
      </trkpt>
      <trkpt lat="46.31741" lon="-0.73436">
        <ele>6</ele>
        <time>2023-11-01T21:33:07Z</time>
      </trkpt>
      <trkpt lat="46.31664" lon="-0.7346">
        <ele>7</ele>
        <time>2023-11-01T21:34:52Z</time>
      </trkpt>
      <trkpt lat="46.3162" lon="-0.7337">
        <ele>6</ele>
        <time>2023-11-01T21:36:33Z</time>
      </trkpt>
      <trkpt lat="46.31492" lon="-0.73342">
        <ele>7</ele>
        <time>2023-11-01T21:39:26Z</time>
      </trkpt>
      <trkpt lat="46.31371" lon="-0.73378">
        <ele>5</ele>
        <time>2023-11-01T21:42:11Z</time>
      </trkpt>
    </trkseg>
  </trk>
  <trk>
    <name><![CDATA[31_Damvix_12.4km-7873061]]></name>
    <extensions>
      <line xmlns="http://www.topografix.com/GPX/gpx_style/0/2">
        <color>00FF00</color>
        <width>4</width>
      </line>
    </extensions>
    <trkseg>
      <trkpt lat="46.31377" lon="-0.73376">
        <ele>5</ele>
        <time>2023-11-01T15:38:11Z</time>
      </trkpt>
      <trkpt lat="46.31314" lon="-0.73346">
        <ele>5</ele>
        <time>2023-11-01T15:39:40Z</time>
      </trkpt>
      <trkpt lat="46.31211" lon="-0.73527">
        <ele>4</ele>
        <time>2023-11-01T15:43:16Z</time>
      </trkpt>
      <trkpt lat="46.31107" lon="-0.73763">
        <ele>4</ele>
        <time>2023-11-01T15:47:34Z</time>
      </trkpt>
      <trkpt lat="46.30873" lon="-0.73964">
        <ele>3</ele>
        <time>2023-11-01T15:53:37Z</time>
      </trkpt>
      <trkpt lat="46.30802" lon="-0.73973">
        <ele>3</ele>
        <time>2023-11-01T15:55:12Z</time>
      </trkpt>
      <trkpt lat="46.30733" lon="-0.74067">
        <ele>3</ele>
        <time>2023-11-01T15:57:18Z</time>
      </trkpt>
      <trkpt lat="46.30976" lon="-0.74866">
        <ele>3</ele>
        <time>2023-11-01T16:10:43Z</time>
      </trkpt>
      <trkpt lat="46.30926" lon="-0.75007">
        <ele>3</ele>
        <time>2023-11-01T16:13:09Z</time>
      </trkpt>
      <trkpt lat="46.30885" lon="-0.74964">
        <ele>3</ele>
        <time>2023-11-01T16:14:17Z</time>
      </trkpt>
      <trkpt lat="46.3071" lon="-0.75162">
        <ele>4</ele>
        <time>2023-11-01T16:19:13Z</time>
      </trkpt>
      <trkpt lat="46.30618" lon="-0.75368">
        <ele>4</ele>
        <time>2023-11-01T16:22:59Z</time>
      </trkpt>
      <trkpt lat="46.30674" lon="-0.75428">
        <ele>2</ele>
        <time>2023-11-01T16:24:32Z</time>
      </trkpt>
      <trkpt lat="46.30449" lon="-0.75792">
        <ele>4</ele>
        <time>2023-11-01T16:32:03Z</time>
      </trkpt>
      <trkpt lat="46.31409" lon="-0.77179">
        <ele>4</ele>
        <time>2023-11-01T17:02:12Z</time>
      </trkpt>
      <trkpt lat="46.31746" lon="-0.77676">
        <ele>3</ele>
        <time>2023-11-01T17:12:54Z</time>
      </trkpt>
      <trkpt lat="46.31832" lon="-0.77503">
        <ele>4</ele>
        <time>2023-11-01T17:16:11Z</time>
      </trkpt>
      <trkpt lat="46.31829" lon="-0.77406">
        <ele>4</ele>
        <time>2023-11-01T17:17:40Z</time>
      </trkpt>
      <trkpt lat="46.31854" lon="-0.77402">
        <ele>4</ele>
        <time>2023-11-01T17:18:14Z</time>
      </trkpt>
      <trkpt lat="46.31878" lon="-0.77535">
        <ele>4</ele>
        <time>2023-11-01T17:20:21Z</time>
      </trkpt>
      <trkpt lat="46.31912" lon="-0.77576">
        <ele>3</ele>
        <time>2023-11-01T17:21:20Z</time>
      </trkpt>
      <trkpt lat="46.31977" lon="-0.77505">
        <ele>5</ele>
        <time>2023-11-01T17:23:08Z</time>
      </trkpt>
      <trkpt lat="46.32026" lon="-0.77438">
        <ele>4</ele>
        <time>2023-11-01T17:24:38Z</time>
      </trkpt>
      <trkpt lat="46.32295" lon="-0.7625">
        <ele>3</ele>
        <time>2023-11-01T17:43:50Z</time>
      </trkpt>
      <trkpt lat="46.32454" lon="-0.76029">
        <ele>3</ele>
        <time>2023-11-01T17:48:45Z</time>
      </trkpt>
      <trkpt lat="46.32466" lon="-0.75973">
        <ele>3</ele>
        <time>2023-11-01T17:49:39Z</time>
      </trkpt>
      <trkpt lat="46.32527" lon="-0.75857">
        <ele>3</ele>
        <time>2023-11-01T17:51:53Z</time>
      </trkpt>
      <trkpt lat="46.32798" lon="-0.7567">
        <ele>4</ele>
        <time>2023-11-01T17:58:34Z</time>
      </trkpt>
      <trkpt lat="46.32896" lon="-0.75649">
        <ele>6</ele>
        <time>2023-11-01T18:00:46Z</time>
      </trkpt>
      <trkpt lat="46.33638" lon="-0.75014">
        <ele>4</ele>
        <time>2023-11-01T18:19:56Z</time>
      </trkpt>
      <trkpt lat="46.33802" lon="-0.74835">
        <ele>4</ele>
        <time>2023-11-01T18:24:30Z</time>
      </trkpt>
      <trkpt lat="46.33953" lon="-0.74314">
        <ele>3</ele>
        <time>2023-11-01T18:33:10Z</time>
      </trkpt>
      <trkpt lat="46.33497" lon="-0.74323">
        <ele>2</ele>
        <time>2023-11-01T18:43:19Z</time>
      </trkpt>
      <trkpt lat="46.33324" lon="-0.73278">
        <ele>5</ele>
        <time>2023-11-01T18:59:49Z</time>
      </trkpt>
      <trkpt lat="46.3315" lon="-0.73458">
        <ele>3</ele>
        <time>2023-11-01T19:04:35Z</time>
      </trkpt>
      <trkpt lat="46.32827" lon="-0.73449">
        <ele>5</ele>
        <time>2023-11-01T19:11:46Z</time>
      </trkpt>
      <trkpt lat="46.32696" lon="-0.73297">
        <ele>5</ele>
        <time>2023-11-01T19:15:30Z</time>
      </trkpt>
      <trkpt lat="46.32565" lon="-0.73331">
        <ele>6</ele>
        <time>2023-11-01T19:18:27Z</time>
      </trkpt>
      <trkpt lat="46.32245" lon="-0.73346">
        <ele>7</ele>
        <time>2023-11-01T19:25:35Z</time>
      </trkpt>
      <trkpt lat="46.32079" lon="-0.73233">
        <ele>8</ele>
        <time>2023-11-01T19:29:39Z</time>
      </trkpt>
      <trkpt lat="46.32005" lon="-0.73248">
        <ele>7</ele>
        <time>2023-11-01T19:31:19Z</time>
      </trkpt>
      <trkpt lat="46.31897" lon="-0.73301">
        <ele>6</ele>
        <time>2023-11-01T19:33:51Z</time>
      </trkpt>
      <trkpt lat="46.31741" lon="-0.73436">
        <ele>6</ele>
        <time>2023-11-01T19:37:54Z</time>
      </trkpt>
      <trkpt lat="46.31664" lon="-0.7346">
        <ele>7</ele>
        <time>2023-11-01T19:39:39Z</time>
      </trkpt>
      <trkpt lat="46.3162" lon="-0.7337">
        <ele>6</ele>
        <time>2023-11-01T19:41:20Z</time>
      </trkpt>
      <trkpt lat="46.31492" lon="-0.73342">
        <ele>7</ele>
        <time>2023-11-01T19:44:13Z</time>
      </trkpt>
      <trkpt lat="46.31371" lon="-0.73378">
        <ele>5</ele>
        <time>2023-11-01T19:46:58Z</time>
      </trkpt>
    </trkseg>
  </trk>
</gpx>